createdAt,value
2022-12-11T04:39:15.704Z,98040.31
2022-12-11T04:41:42.309Z,98020.94
2022-12-11T04:44:08.851Z,98021.03
2022-12-11T04:46:35.660Z,98027.78
2022-12-11T04:49:02.329Z,98028.66
2022-12-11T04:51:29.199Z,98017.78
2022-12-11T04:53:55.711Z,98017.81
2022-12-11T04:56:22.355Z,98004.28
2022-12-11T04:58:48.863Z,98001.84
2022-12-11T05:01:18.537Z,97980.63
2022-12-11T05:03:45.510Z,97986.78
2022-12-11T05:06:12.369Z,97998.59
2022-12-11T05:08:40.339Z,97997.66
2022-12-11T05:11:09.752Z,97991.78
2022-12-11T05:13:36.330Z,97987.47
2022-12-11T05:16:08.214Z,97986.72
2022-12-11T05:18:34.979Z,97980.06
2022-12-11T05:21:05.206Z,97985.16
2022-12-11T05:23:31.702Z,97988.63
2022-12-11T05:26:01.905Z,97965.00
2022-12-11T05:28:33.592Z,97965.88
2022-12-11T05:31:02.300Z,97969.31
2022-12-11T05:33:29.297Z,97963.41
2022-12-11T05:35:56.759Z,97971.00
2022-12-11T05:38:24.024Z,97966.88
2022-12-11T05:41:07.231Z,97957.63
2022-12-11T05:43:36.585Z,97962.75
2022-12-11T05:46:14.779Z,97967.81
2022-12-11T05:48:42.743Z,97962.03
2022-12-11T05:51:10.311Z,97954.53
2022-12-11T05:53:38.093Z,97947.81
2022-12-11T05:56:28.895Z,97944.63
2022-12-11T05:58:56.501Z,97932.03
2022-12-11T06:01:43.101Z,97921.09
2022-12-11T06:04:11.582Z,97917.63
2022-12-11T06:06:40.330Z,97920.25
2022-12-11T06:09:07.519Z,97902.53
2022-12-11T06:11:35.595Z,97910.97
2022-12-11T06:14:03.632Z,97917.75
2022-12-11T06:16:30.244Z,97922.88
2022-12-11T06:18:58.361Z,97917.06
2022-12-11T06:21:28.490Z,97905.28
2022-12-11T06:23:56.593Z,97909.59
2022-12-11T10:53:36.415Z,97361.44
2022-12-11T10:56:03.136Z,97354.63
2022-12-11T10:58:33.941Z,97358.03
2022-12-11T11:01:06.404Z,97352.94
2022-12-11T11:03:35.505Z,97343.63
2022-12-11T11:06:07.907Z,97347.03
2022-12-11T11:08:46.838Z,97339.41
2022-12-11T11:11:35.034Z,97329.25
2022-12-11T11:14:21.918Z,97327.56
2022-12-11T11:16:51.801Z,97325.84
2022-12-11T11:19:26.840Z,97314.00
2022-12-11T11:21:59.214Z,97315.69
2022-12-11T11:24:39.621Z,97294.50
2022-12-11T11:27:24.561Z,97307.22
2022-12-11T11:29:56.908Z,97294.50
2022-12-11T11:32:34.561Z,97286.84
2022-12-11T11:35:13.587Z,97277.53
2022-12-11T11:37:44.569Z,97284.31
2022-12-11T11:40:16.928Z,97265.63
2022-12-11T11:43:21.036Z,97269.88
2022-12-11T11:45:55.289Z,97270.72
2022-12-11T11:48:30.978Z,97262.25
2022-12-11T11:50:58.372Z,97264.78
2022-12-11T11:53:37.307Z,97258.78
2022-12-11T11:56:48.932Z,97255.38
2022-12-11T11:59:18.409Z,97256.22
2022-12-11T12:01:45.018Z,97246.03
2022-12-11T12:04:12.256Z,97241.78
2022-12-11T12:06:51.169Z,97243.47
2022-12-11T12:13:44.356Z,97236.66
2022-12-11T12:24:29.336Z,97215.38
2022-12-11T12:27:29.189Z,97215.38
2022-12-11T12:30:05.904Z,97217.91
2022-12-11T12:32:40.618Z,97219.53
2022-12-11T12:35:10.204Z,97219.53
2022-12-11T12:37:45.902Z,97211.00
2022-12-11T12:40:15.210Z,97217.78
2022-12-11T12:43:00.220Z,97214.44
2022-12-11T12:45:45.479Z,97200.81
2022-12-11T12:48:12.093Z,97202.50
2022-12-11T12:50:48.702Z,97198.25
2022-12-11T12:53:23.911Z,97200.81
2022-12-11T12:55:51.876Z,97196.53
2022-12-11T12:58:25.726Z,97200.72
2022-12-11T13:00:52.539Z,97199.03
2022-12-11T13:03:29.319Z,97195.63
2022-12-11T13:05:57.720Z,97185.47
2022-12-11T13:08:47.137Z,97193.09
2022-12-11T13:11:16.731Z,97183.66
2022-12-11T13:13:51.618Z,97186.22
2022-12-11T13:16:21.198Z,97185.34
2022-12-11T13:18:48.408Z,97176.84
2022-12-11T13:21:31.592Z,97178.56
2022-12-11T13:24:13.528Z,97181.94
2022-12-11T13:26:40.665Z,97174.28
2022-12-11T13:29:37.369Z,97180.22
2022-12-11T13:32:10.006Z,97169.94
2022-12-11T13:34:41.289Z,97171.66
2022-12-11T13:37:25.031Z,97162.28
2022-12-11T13:39:52.465Z,97165.72
2022-12-11T13:42:44.249Z,97169.88
2022-12-11T13:45:45.201Z,97159.72
2022-12-11T13:48:32.275Z,97166.50
2022-12-11T13:51:00.323Z,97156.34
2022-12-11T13:53:27.029Z,97160.59
2022-12-11T13:56:03.216Z,97159.75
2022-12-11T13:58:33.950Z,97165.63
2022-12-11T14:01:27.679Z,97169.81
2022-12-11T14:03:55.863Z,97162.28
2022-12-11T14:06:22.960Z,97155.47
2022-12-11T14:08:53.476Z,97157.97
2022-12-11T14:11:41.584Z,97157.88
2022-12-11T14:14:42.142Z,97160.44
2022-12-11T14:17:15.665Z,97159.44
2022-12-11T14:19:47.908Z,97154.28
2022-12-11T14:22:23.916Z,97164.44
2022-12-11T14:24:51.886Z,97156.81
2022-12-11T14:27:19.614Z,97155.97
2022-12-11T14:29:46.819Z,97160.25
2022-12-11T14:32:20.383Z,97156.81
2022-12-11T18:42:33.572Z,97372.84
2022-12-11T18:45:00.920Z,97370.28
2022-12-11T18:47:27.612Z,97375.38
2022-12-11T18:49:54.152Z,97376.16
2022-12-11T18:52:20.684Z,97393.94
2022-12-11T18:54:47.637Z,97384.59
2022-12-11T18:57:14.237Z,97390.53
2022-12-11T18:59:40.908Z,97405.75
2022-12-11T19:02:07.862Z,97409.91
2022-12-11T19:04:36.132Z,97418.41
2022-12-11T19:07:02.745Z,97429.34
2022-12-11T19:09:32.775Z,97423.34
2022-12-11T19:12:03.937Z,97424.16
2022-12-11T19:14:30.515Z,97431.75
2022-12-11T19:16:57.140Z,97436.72
2022-12-11T19:19:23.796Z,97444.31
2022-12-11T19:21:50.662Z,97453.53
2022-12-11T19:24:20.859Z,97461.94
2022-12-11T19:26:50.518Z,97462.69
2022-12-11T19:29:26.597Z,97477.03
2022-12-11T19:31:55.181Z,97472.72
2022-12-11T19:34:22.450Z,97472.75
2022-12-11T19:36:49.445Z,97487.03
2022-12-11T19:39:16.155Z,97497.97
2022-12-11T19:41:44.098Z,97487.03
2022-12-11T19:44:11.253Z,97504.69
2022-12-11T19:46:37.958Z,97510.53
2022-12-11T19:49:04.943Z,97501.25
2022-12-11T19:51:34.050Z,97496.13
2022-12-11T19:54:03.041Z,97506.22
2022-12-11T19:56:32.366Z,97512.97
2022-12-11T19:59:00.853Z,97511.25
2022-12-11T20:01:31.019Z,97517.09
2022-12-11T20:04:00.799Z,97526.19
2022-12-11T20:06:31.402Z,97521.09
2022-12-11T20:08:58.896Z,97540.38
2022-12-11T20:11:25.560Z,97537.84
2022-12-11T20:13:53.904Z,97563.09
2022-12-11T20:16:33.626Z,97554.66
2022-12-11T20:19:07.602Z,97549.53
2022-12-11T20:21:35.443Z,97555.38
2022-12-11T20:24:02.221Z,97559.53
2022-12-11T20:26:31.017Z,97548.53
2022-12-11T20:28:57.736Z,97535.81
2022-12-11T20:31:25.817Z,97524.03
2022-12-11T20:33:53.358Z,97514.69
2022-12-11T20:36:21.812Z,97513.00
2022-12-11T20:38:49.117Z,97508.63
2022-12-11T20:41:19.092Z,97523.75
2022-12-11T20:43:46.083Z,97542.28
2022-12-11T20:46:14.944Z,97551.28
2022-12-11T20:48:42.728Z,97553.66
2022-12-11T20:51:12.439Z,97556.81
2022-12-11T20:53:39.853Z,97565.81
2022-12-11T20:56:15.126Z,97568.19
2022-12-11T20:58:41.729Z,97567.06
2022-12-11T21:01:16.654Z,97573.72
2022-12-11T21:03:43.334Z,97553.50
2022-12-11T21:06:38.623Z,97548.38
2022-12-11T21:09:17.911Z,97558.47
2022-12-11T21:11:44.574Z,97551.66
2022-12-11T21:14:11.083Z,97570.16
2022-12-11T21:16:37.878Z,97571.72
2022-12-11T21:19:05.890Z,97568.19
2022-12-11T21:21:34.496Z,97577.44
2022-12-11T21:24:01.097Z,97590.88
2022-12-11T21:26:27.654Z,97588.31
2022-12-11T21:28:54.258Z,97590.00
2022-12-11T21:31:21.457Z,97586.81
2022-12-11T21:33:48.675Z,97598.50
2022-12-11T21:36:15.906Z,97589.09
2022-12-11T21:38:44.163Z,97589.94
2022-12-11T21:41:17.725Z,97592.44
2022-12-11T21:44:40.831Z,97598.28
2022-12-11T21:46:33.207Z,97601.44
2022-12-11T21:48:59.750Z,97597.25
2022-12-11T21:51:36.840Z,97595.56
2022-12-11T21:54:06.938Z,97604.00
2022-12-11T21:56:33.918Z,97597.25
2022-12-11T21:59:01.588Z,97589.69
2022-12-11T22:01:32.009Z,97585.44
2022-12-11T22:03:58.985Z,97584.63
2022-12-11T22:06:25.591Z,97582.09
2022-12-11T22:08:52.180Z,97575.34
2022-12-11T22:11:24.512Z,97584.38
